sensor_id;sensor_type;location;lat;lon;timestamp;temperature;humidity
17421;DHT22;8828;48.800;9.540;2023-01-01T00:00:06;11.40;99.90
17421;DHT22;8828;48.800;9.540;2023-01-01T00:02:34;11.40;99.90
17421;DHT22;8828;48.800;9.540;2023-01-01T00:05:03;11.40;99.90
17421;DHT22;8828;48.800;9.540;2023-01-01T00:07:32;11.40;99.90
17421;DHT22;8828;48.800;9.540;2023-01-01T00:10:01;11.40;99.90
17421;DHT22;8828;48.800;9.540;2023-01-01T00:12:46;11.30;99.90
17421;DHT22;8828;48.800;9.540;2023-01-01T00:15:14;11.30;99.90
17421;DHT22;8828;48.800;9.540;2023-01-01T00:17:42;11.30;99.90
17421;DHT22;8828;48.800;9.540;2023-01-01T00:20:10;11.30;99.90
17421;DHT22;8828;48.800;9.540;2023-01-01T00:22:40;11.30;99.90
17421;DHT22;8828;48.800;9.540;2023-01-01T00:25:24;11.30;99.90
17421;DHT22;8828;48.800;9.540;2023-01-01T00:27:52;11.30;99.90
17421;DHT22;8828;48.800;9.540;2023-01-01T00:30:20;11.30;99.90
17421;DHT22;8828;48.800;9.540;2023-01-01T00:32:50;11.30;99.90
17421;DHT22;8828;48.800;9.540;2023-01-01T00:35:22;11.30;99.90
17421;DHT22;8828;48.800;9.540;2023-01-01T00:37:52;11.30;99.90
17421;DHT22;8828;48.800;9.540;2023-01-01T00:40:20;11.30;99.90
17421;DHT22;8828;48.800;9.540;2023-01-01T00:42:48;11.30;99.90
17421;DHT22;8828;48.800;9.540;2023-01-01T00:45:16;11.40;99.90
17421;DHT22;8828;48.800;9.540;2023-01-01T00:47:49;11.50;99.90
17421;DHT22;8828;48.800;9.540;2023-01-01T00:50:18;11.60;99.90
17421;DHT22;8828;48.800;9.540;2023-01-01T00:52:46;11.80;99.90
17421;DHT22;8828;48.800;9.540;2023-01-01T00:55:16;11.90;99.90
17421;DHT22;8828;48.800;9.540;2023-01-01T00:57:44;12.00;99.90
17421;DHT22;8828;48.800;9.540;2023-01-01T01:00:13;12.10;99.90
17421;DHT22;8828;48.800;9.540;2023-01-01T01:02:41;12.30;99.90
17421;DHT22;8828;48.800;9.540;2023-01-01T01:05:09;12.40;99.90
17421;DHT22;8828;48.800;9.540;2023-01-01T01:07:37;12.50;99.90
17421;DHT22;8828;48.800;9.540;2023-01-01T01:10:06;12.60;99.90
17421;DHT22;8828;48.800;9.540;2023-01-01T01:12:37;12.50;99.90
17421;DHT22;8828;48.800;9.540;2023-01-01T01:15:06;12.60;99.90
17421;DHT22;8828;48.800;9.540;2023-01-01T01:17:34;12.50;99.90
17421;DHT22;8828;48.800;9.540;2023-01-01T01:20:04;12.50;99.90
17421;DHT22;8828;48.800;9.540;2023-01-01T01:22:32;12.50;99.90
17421;DHT22;8828;48.800;9.540;2023-01-01T01:25:01;12.50;99.90
17421;DHT22;8828;48.800;9.540;2023-01-01T01:27:29;12.50;99.90
17421;DHT22;8828;48.800;9.540;2023-01-01T01:29:58;12.40;99.90
17421;DHT22;8828;48.800;9.540;2023-01-01T01:32:26;12.40;99.90
17421;DHT22;8828;48.800;9.540;2023-01-01T01:34:54;12.40;99.90
17421;DHT22;8828;48.800;9.540;2023-01-01T01:37:22;12.40;99.90
17421;DHT22;8828;48.800;9.540;2023-01-01T01:39:50;12.30;99.90
17421;DHT22;8828;48.800;9.540;2023-01-01T01:42:20;12.30;99.90
17421;DHT22;8828;48.800;9.540;2023-01-01T01:44:52;12.30;99.90
17421;DHT22;8828;48.800;9.540;2023-01-01T01:47:25;12.30;99.90
17421;DHT22;8828;48.800;9.540;2023-01-01T01:49:58;12.30;99.90
17421;DHT22;8828;48.800;9.540;2023-01-01T01:52:28;12.30;99.90
17421;DHT22;8828;48.800;9.540;2023-01-01T01:54:58;12.30;99.90
17421;DHT22;8828;48.800;9.540;2023-01-01T01:57:28;12.30;99.90
17421;DHT22;8828;48.800;9.540;2023-01-01T01:59:56;12.30;99.90
17421;DHT22;8828;48.800;9.540;2023-01-01T02:02:36;12.30;99.90
17421;DHT22;8828;48.800;9.540;2023-01-01T02:05:06;12.30;99.90
17421;DHT22;8828;48.800;9.540;2023-01-01T02:07:35;12.30;99.90
17421;DHT22;8828;48.800;9.540;2023-01-01T02:10:04;12.20;99.90
17421;DHT22;8828;48.800;9.540;2023-01-01T02:12:32;12.20;99.90
17421;DHT22;8828;48.800;9.540;2023-01-01T02:15:00;12.20;99.90
17421;DHT22;8828;48.800;9.540;2023-01-01T02:17:32;12.20;99.90
17421;DHT22;8828;48.800;9.540;2023-01-01T02:20:36;12.20;99.90
17421;DHT22;8828;48.800;9.540;2023-01-01T02:26:29;12.10;99.90
17421;DHT22;8828;48.800;9.540;2023-01-01T02:29:16;12.10;99.90
17421;DHT22;8828;48.800;9.540;2023-01-01T02:31:49;12.10;99.90
17421;DHT22;8828;48.800;9.540;2023-01-01T02:34:23;12.10;99.90
17421;DHT22;8828;48.800;9.540;2023-01-01T02:36:54;12.10;99.90
17421;DHT22;8828;48.800;9.540;2023-01-01T02:39:27;12.10;99.90
17421;DHT22;8828;48.800;9.540;2023-01-01T02:41:57;12.10;99.90
17421;DHT22;8828;48.800;9.540;2023-01-01T02:44:29;12.00;99.90
17421;DHT22;8828;48.800;9.540;2023-01-01T02:47:08;12.00;99.90
17421;DHT22;8828;48.800;9.540;2023-01-01T02:49:40;12.00;99.90
17421;DHT22;8828;48.800;9.540;2023-01-01T02:52:20;12.00;99.90
17421;DHT22;8828;48.800;9.540;2023-01-01T02:54:57;12.00;99.90
17421;DHT22;8828;48.800;9.540;2023-01-01T02:57:33;12.00;99.90
17421;DHT22;8828;48.800;9.540;2023-01-01T03:00:07;12.00;99.90
17421;DHT22;8828;48.800;9.540;2023-01-01T03:03:07;12.00;99.90
17421;DHT22;8828;48.800;9.540;2023-01-01T03:05:41;12.00;99.90
17421;DHT22;8828;48.800;9.540;2023-01-01T03:08:32;12.00;99.90
17421;DHT22;8828;48.800;9.540;2023-01-01T03:11:07;12.00;99.90
17421;DHT22;8828;48.800;9.540;2023-01-01T03:13:41;12.00;99.90
17421;DHT22;8828;48.800;9.540;2023-01-01T03:16:15;12.00;99.90
17421;DHT22;8828;48.800;9.540;2023-01-01T03:18:49;12.00;99.90
17421;DHT22;8828;48.800;9.540;2023-01-01T03:21:44;12.00;99.90
17421;DHT22;8828;48.800;9.540;2023-01-01T03:24:20;12.00;99.90
17421;DHT22;8828;48.800;9.540;2023-01-01T03:26:53;12.10;99.90
17421;DHT22;8828;48.800;9.540;2023-01-01T03:29:25;12.10;99.90
17421;DHT22;8828;48.800;9.540;2023-01-01T03:31:57;12.10;99.90
17421;DHT22;8828;48.800;9.540;2023-01-01T03:34:29;12.10;99.90
17421;DHT22;8828;48.800;9.540;2023-01-01T03:36:59;12.10;99.90
17421;DHT22;8828;48.800;9.540;2023-01-01T03:39:33;12.10;99.90
17421;DHT22;8828;48.800;9.540;2023-01-01T03:42:09;12.10;99.90
17421;DHT22;8828;48.800;9.540;2023-01-01T03:44:44;12.00;99.90
17421;DHT22;8828;48.800;9.540;2023-01-01T03:47:15;12.00;99.90
17421;DHT22;8828;48.800;9.540;2023-01-01T03:49:44;12.00;99.90
17421;DHT22;8828;48.800;9.540;2023-01-01T03:52:20;12.00;99.90
17421;DHT22;8828;48.800;9.540;2023-01-01T03:54:53;12.00;99.90
17421;DHT22;8828;48.800;9.540;2023-01-01T03:57:33;12.00;99.90
17421;DHT22;8828;48.800;9.540;2023-01-01T04:00:05;12.00;99.90
17421;DHT22;8828;48.800;9.540;2023-01-01T04:02:38;12.00;99.90
17421;DHT22;8828;48.800;9.540;2023-01-01T04:05:08;12.00;99.90
17421;DHT22;8828;48.800;9.540;2023-01-01T04:07:37;12.00;99.90
17421;DHT22;8828;48.800;9.540;2023-01-01T04:10:06;12.00;99.90
17421;DHT22;8828;48.800;9.540;2023-01-01T04:12:45;12.00;99.90
17421;DHT22;8828;48.800;9.540;2023-01-01T04:15:13;12.00;99.90
17421;DHT22;8828;48.800;9.540;2023-01-01T04:17:43;12.00;99.90
17421;DHT22;8828;48.800;9.540;2023-01-01T04:20:11;12.00;99.90
17421;DHT22;8828;48.800;9.540;2023-01-01T04:22:40;12.00;99.90
17421;DHT22;8828;48.800;9.540;2023-01-01T04:25:09;12.00;99.90
17421;DHT22;8828;48.800;9.540;2023-01-01T04:27:37;12.10;99.90
17421;DHT22;8828;48.800;9.540;2023-01-01T04:30:08;12.20;99.90
17421;DHT22;8828;48.800;9.540;2023-01-01T04:32:37;12.20;99.90
17421;DHT22;8828;48.800;9.540;2023-01-01T04:35:07;12.30;99.90
17421;DHT22;8828;48.800;9.540;2023-01-01T04:37:38;12.40;99.90
17421;DHT22;8828;48.800;9.540;2023-01-01T04:40:07;12.40;99.90
17421;DHT22;8828;48.800;9.540;2023-01-01T04:42:35;12.50;99.90
17421;DHT22;8828;48.800;9.540;2023-01-01T04:45:04;12.60;99.90
17421;DHT22;8828;48.800;9.540;2023-01-01T04:47:32;12.60;99.90
17421;DHT22;8828;48.800;9.540;2023-01-01T04:50:00;12.70;99.90
17421;DHT22;8828;48.800;9.540;2023-01-01T04:52:29;12.80;99.90
17421;DHT22;8828;48.800;9.540;2023-01-01T04:54:57;12.90;99.90
17421;DHT22;8828;48.800;9.540;2023-01-01T04:57:25;13.10;99.90
17421;DHT22;8828;48.800;9.540;2023-01-01T04:59:55;13.10;99.90
17421;DHT22;8828;48.800;9.540;2023-01-01T05:02:23;13.20;99.90
17421;DHT22;8828;48.800;9.540;2023-01-01T05:04:51;13.30;99.90
17421;DHT22;8828;48.800;9.540;2023-01-01T05:07:19;13.30;99.90
17421;DHT22;8828;48.800;9.540;2023-01-01T05:09:48;13.40;99.90
17421;DHT22;8828;48.800;9.540;2023-01-01T05:12:16;13.40;99.90
17421;DHT22;8828;48.800;9.540;2023-01-01T05:14:44;13.50;99.90
17421;DHT22;8828;48.800;9.540;2023-01-01T05:17:12;13.50;99.90
17421;DHT22;8828;48.800;9.540;2023-01-01T05:19:40;13.40;99.90
17421;DHT22;8828;48.800;9.540;2023-01-01T05:22:08;13.50;99.90
17421;DHT22;8828;48.800;9.540;2023-01-01T05:24:37;13.50;99.90
17421;DHT22;8828;48.800;9.540;2023-01-01T05:27:06;13.50;99.90
17421;DHT22;8828;48.800;9.540;2023-01-01T05:29:34;13.60;99.90
17421;DHT22;8828;48.800;9.540;2023-01-01T05:32:02;13.60;99.90
17421;DHT22;8828;48.800;9.540;2023-01-01T05:34:30;13.70;99.90
17421;DHT22;8828;48.800;9.540;2023-01-01T05:36:57;13.70;99.90
17421;DHT22;8828;48.800;9.540;2023-01-01T05:39:25;13.70;99.90
17421;DHT22;8828;48.800;9.540;2023-01-01T05:41:53;13.80;99.90
17421;DHT22;8828;48.800;9.540;2023-01-01T05:44:22;13.80;99.90
17421;DHT22;8828;48.800;9.540;2023-01-01T05:46:50;13.80;99.90
17421;DHT22;8828;48.800;9.540;2023-01-01T05:49:18;13.80;99.90
17421;DHT22;8828;48.800;9.540;2023-01-01T05:51:46;13.80;99.90
17421;DHT22;8828;48.800;9.540;2023-01-01T05:54:13;13.90;99.90
17421;DHT22;8828;48.800;9.540;2023-01-01T05:56:40;13.90;99.90
17421;DHT22;8828;48.800;9.540;2023-01-01T05:59:09;13.90;99.90
17421;DHT22;8828;48.800;9.540;2023-01-01T06:01:38;13.90;99.90
17421;DHT22;8828;48.800;9.540;2023-01-01T06:04:11;13.90;99.90
17421;DHT22;8828;48.800;9.540;2023-01-01T06:06:40;13.90;99.90
17421;DHT22;8828;48.800;9.540;2023-01-01T06:09:09;13.90;99.90
17421;DHT22;8828;48.800;9.540;2023-01-01T06:11:37;13.90;99.90
17421;DHT22;8828;48.800;9.540;2023-01-01T06:14:05;13.90;99.90
17421;DHT22;8828;48.800;9.540;2023-01-01T06:16:33;13.90;99.90
17421;DHT22;8828;48.800;9.540;2023-01-01T06:19:02;13.90;99.90
17421;DHT22;8828;48.800;9.540;2023-01-01T06:21:30;13.90;99.90
17421;DHT22;8828;48.800;9.540;2023-01-01T06:23:58;13.90;99.90
17421;DHT22;8828;48.800;9.540;2023-01-01T06:26:28;13.80;99.90
17421;DHT22;8828;48.800;9.540;2023-01-01T06:28:57;13.80;99.90
17421;DHT22;8828;48.800;9.540;2023-01-01T06:31:26;13.80;99.90
17421;DHT22;8828;48.800;9.540;2023-01-01T06:33:54;13.80;99.90
17421;DHT22;8828;48.800;9.540;2023-01-01T06:36:24;13.80;99.90
17421;DHT22;8828;48.800;9.540;2023-01-01T06:38:54;13.80;99.90
17421;DHT22;8828;48.800;9.540;2023-01-01T06:41:25;13.80;99.90
17421;DHT22;8828;48.800;9.540;2023-01-01T06:43:54;13.70;99.90
17421;DHT22;8828;48.800;9.540;2023-01-01T06:46:24;13.70;99.90
17421;DHT22;8828;48.800;9.540;2023-01-01T06:48:53;13.70;99.90
17421;DHT22;8828;48.800;9.540;2023-01-01T06:51:25;13.70;99.90
17421;DHT22;8828;48.800;9.540;2023-01-01T06:53:54;13.70;99.90
17421;DHT22;8828;48.800;9.540;2023-01-01T06:56:24;13.70;99.90
17421;DHT22;8828;48.800;9.540;2023-01-01T06:58:52;13.70;99.90
17421;DHT22;8828;48.800;9.540;2023-01-01T07:01:22;13.70;99.90
17421;DHT22;8828;48.800;9.540;2023-01-01T07:03:52;13.70;99.90
17421;DHT22;8828;48.800;9.540;2023-01-01T07:06:21;13.70;99.90
17421;DHT22;8828;48.800;9.540;2023-01-01T07:08:51;13.70;99.90
17421;DHT22;8828;48.800;9.540;2023-01-01T07:11:19;13.70;99.90
17421;DHT22;8828;48.800;9.540;2023-01-01T07:13:47;13.70;99.90
17421;DHT22;8828;48.800;9.540;2023-01-01T07:16:15;13.70;99.90
17421;DHT22;8828;48.800;9.540;2023-01-01T07:18:44;13.70;99.90
17421;DHT22;8828;48.800;9.540;2023-01-01T07:21:25;13.70;99.90
17421;DHT22;8828;48.800;9.540;2023-01-01T07:23:58;13.80;99.90
17421;DHT22;8828;48.800;9.540;2023-01-01T07:26:27;13.70;99.90
17421;DHT22;8828;48.800;9.540;2023-01-01T07:28:56;13.80;99.90
17421;DHT22;8828;48.800;9.540;2023-01-01T07:31:32;13.80;99.90
17421;DHT22;8828;48.800;9.540;2023-01-01T07:34:01;13.80;99.90
17421;DHT22;8828;48.800;9.540;2023-01-01T07:36:29;13.80;99.90
17421;DHT22;8828;48.800;9.540;2023-01-01T07:38:58;13.80;99.90
17421;DHT22;8828;48.800;9.540;2023-01-01T07:41:26;13.80;99.90
17421;DHT22;8828;48.800;9.540;2023-01-01T07:43:54;13.80;99.90
17421;DHT22;8828;48.800;9.540;2023-01-01T07:46:22;13.80;99.90
17421;DHT22;8828;48.800;9.540;2023-01-01T07:48:50;13.80;99.90
17421;DHT22;8828;48.800;9.540;2023-01-01T07:51:18;13.80;99.90
17421;DHT22;8828;48.800;9.540;2023-01-01T07:53:46;13.80;99.90
17421;DHT22;8828;48.800;9.540;2023-01-01T07:56:15;13.80;99.90
17421;DHT22;8828;48.800;9.540;2023-01-01T07:58:43;13.80;99.90
17421;DHT22;8828;48.800;9.540;2023-01-01T08:01:12;13.80;99.90
17421;DHT22;8828;48.800;9.540;2023-01-01T08:03:41;13.80;99.90
17421;DHT22;8828;48.800;9.540;2023-01-01T08:06:10;13.80;99.90
17421;DHT22;8828;48.800;9.540;2023-01-01T08:08:38;13.80;99.90
17421;DHT22;8828;48.800;9.540;2023-01-01T08:11:07;13.90;99.90
17421;DHT22;8828;48.800;9.540;2023-01-01T08:13:36;13.80;99.90
17421;DHT22;8828;48.800;9.540;2023-01-01T08:16:05;13.90;99.90
17421;DHT22;8828;48.800;9.540;2023-01-01T08:18:33;13.80;99.90
17421;DHT22;8828;48.800;9.540;2023-01-01T08:21:02;13.90;99.90
17421;DHT22;8828;48.800;9.540;2023-01-01T08:23:30;13.90;99.90
17421;DHT22;8828;48.800;9.540;2023-01-01T08:25:59;13.90;99.90
17421;DHT22;8828;48.800;9.540;2023-01-01T08:28:28;13.80;99.90
17421;DHT22;8828;48.800;9.540;2023-01-01T08:30:57;13.80;99.90
17421;DHT22;8828;48.800;9.540;2023-01-01T08:33:26;13.80;99.90
17421;DHT22;8828;48.800;9.540;2023-01-01T08:35:53;13.80;99.90
17421;DHT22;8828;48.800;9.540;2023-01-01T08:38:22;13.80;99.90
17421;DHT22;8828;48.800;9.540;2023-01-01T08:40:50;13.80;99.90
17421;DHT22;8828;48.800;9.540;2023-01-01T08:43:18;13.80;99.90
17421;DHT22;8828;48.800;9.540;2023-01-01T08:45:46;13.70;99.90
17421;DHT22;8828;48.800;9.540;2023-01-01T08:48:15;13.70;99.90
17421;DHT22;8828;48.800;9.540;2023-01-01T08:50:43;13.70;99.90
17421;DHT22;8828;48.800;9.540;2023-01-01T08:53:11;13.70;99.90
17421;DHT22;8828;48.800;9.540;2023-01-01T08:55:39;13.70;99.90
17421;DHT22;8828;48.800;9.540;2023-01-01T08:58:07;13.70;99.90
17421;DHT22;8828;48.800;9.540;2023-01-01T09:00:35;13.70;99.90
17421;DHT22;8828;48.800;9.540;2023-01-01T09:03:03;13.70;99.90
17421;DHT22;8828;48.800;9.540;2023-01-01T09:05:32;13.70;99.90
17421;DHT22;8828;48.800;9.540;2023-01-01T09:08:00;13.70;99.90
17421;DHT22;8828;48.800;9.540;2023-01-01T09:10:29;13.70;99.90
17421;DHT22;8828;48.800;9.540;2023-01-01T09:12:57;13.70;99.90
17421;DHT22;8828;48.800;9.540;2023-01-01T09:15:24;13.80;99.90
17421;DHT22;8828;48.800;9.540;2023-01-01T09:17:52;13.80;99.90
17421;DHT22;8828;48.800;9.540;2023-01-01T09:20:21;13.80;99.90
17421;DHT22;8828;48.800;9.540;2023-01-01T09:22:50;13.80;99.90
17421;DHT22;8828;48.800;9.540;2023-01-01T09:25:18;13.80;99.90
17421;DHT22;8828;48.800;9.540;2023-01-01T09:27:46;13.80;99.90
17421;DHT22;8828;48.800;9.540;2023-01-01T09:30:14;13.80;99.90
17421;DHT22;8828;48.800;9.540;2023-01-01T09:32:42;13.90;99.90
17421;DHT22;8828;48.800;9.540;2023-01-01T09:35:10;13.90;99.90
17421;DHT22;8828;48.800;9.540;2023-01-01T09:37:38;13.90;99.90
17421;DHT22;8828;48.800;9.540;2023-01-01T09:40:20;14.00;99.90
17421;DHT22;8828;48.800;9.540;2023-01-01T09:42:55;14.00;99.90
17421;DHT22;8828;48.800;9.540;2023-01-01T09:45:29;14.00;99.90
17421;DHT22;8828;48.800;9.540;2023-01-01T09:48:00;14.10;99.90
17421;DHT22;8828;48.800;9.540;2023-01-01T09:50:35;14.10;99.90
17421;DHT22;8828;48.800;9.540;2023-01-01T09:53:10;14.10;99.90
17421;DHT22;8828;48.800;9.540;2023-01-01T09:55:45;14.10;99.90
17421;DHT22;8828;48.800;9.540;2023-01-01T09:58:14;14.10;99.90
17421;DHT22;8828;48.800;9.540;2023-01-01T10:00:45;14.00;99.90
17421;DHT22;8828;48.800;9.540;2023-01-01T10:03:28;14.00;99.90
17421;DHT22;8828;48.800;9.540;2023-01-01T10:06:07;14.00;99.90
17421;DHT22;8828;48.800;9.540;2023-01-01T10:08:52;14.00;99.90
17421;DHT22;8828;48.800;9.540;2023-01-01T10:11:28;14.00;99.90
17421;DHT22;8828;48.800;9.540;2023-01-01T10:14:00;14.00;99.90
17421;DHT22;8828;48.800;9.540;2023-01-01T10:16:35;14.00;99.90
17421;DHT22;8828;48.800;9.540;2023-01-01T10:19:12;14.00;99.90
17421;DHT22;8828;48.800;9.540;2023-01-01T10:21:46;14.10;99.90
17421;DHT22;8828;48.800;9.540;2023-01-01T10:24:32;14.20;99.90
17421;DHT22;8828;48.800;9.540;2023-01-01T10:27:03;14.20;99.90
17421;DHT22;8828;48.800;9.540;2023-01-01T10:29:37;14.30;99.90
17421;DHT22;8828;48.800;9.540;2023-01-01T10:32:17;14.40;99.90
17421;DHT22;8828;48.800;9.540;2023-01-01T10:34:47;14.50;99.90
17421;DHT22;8828;48.800;9.540;2023-01-01T10:37:16;14.60;99.90
17421;DHT22;8828;48.800;9.540;2023-01-01T10:39:45;14.60;99.90
17421;DHT22;8828;48.800;9.540;2023-01-01T10:42:15;14.60;99.90
17421;DHT22;8828;48.800;9.540;2023-01-01T10:44:44;14.70;99.90
17421;DHT22;8828;48.800;9.540;2023-01-01T10:47:22;14.70;99.90
17421;DHT22;8828;48.800;9.540;2023-01-01T10:49:55;14.70;99.90
17421;DHT22;8828;48.800;9.540;2023-01-01T10:52:27;14.80;99.90
17421;DHT22;8828;48.800;9.540;2023-01-01T10:54:57;14.80;99.90
17421;DHT22;8828;48.800;9.540;2023-01-01T10:57:35;14.90;99.90
17421;DHT22;8828;48.800;9.540;2023-01-01T11:00:19;15.00;99.90
17421;DHT22;8828;48.800;9.540;2023-01-01T11:03:09;15.00;99.90
17421;DHT22;8828;48.800;9.540;2023-01-01T11:05:38;15.10;99.90
17421;DHT22;8828;48.800;9.540;2023-01-01T11:08:16;15.20;99.90
17421;DHT22;8828;48.800;9.540;2023-01-01T11:10:49;15.30;99.90
17421;DHT22;8828;48.800;9.540;2023-01-01T11:13:20;15.40;99.90
17421;DHT22;8828;48.800;9.540;2023-01-01T11:15:48;15.40;99.90
17421;DHT22;8828;48.800;9.540;2023-01-01T11:18:21;15.50;99.90
17421;DHT22;8828;48.800;9.540;2023-01-01T11:20:51;15.70;99.90
17421;DHT22;8828;48.800;9.540;2023-01-01T11:23:27;15.70;99.90
17421;DHT22;8828;48.800;9.540;2023-01-01T11:25:58;15.80;99.90
17421;DHT22;8828;48.800;9.540;2023-01-01T11:28:29;15.90;99.90
17421;DHT22;8828;48.800;9.540;2023-01-01T11:31:08;16.00;99.90
17421;DHT22;8828;48.800;9.540;2023-01-01T11:33:43;16.10;99.90
17421;DHT22;8828;48.800;9.540;2023-01-01T11:36:20;16.10;99.90
17421;DHT22;8828;48.800;9.540;2023-01-01T11:38:49;16.20;99.90
17421;DHT22;8828;48.800;9.540;2023-01-01T11:41:18;16.20;99.90
17421;DHT22;8828;48.800;9.540;2023-01-01T11:43:47;16.20;99.90
17421;DHT22;8828;48.800;9.540;2023-01-01T11:46:21;16.20;99.90
17421;DHT22;8828;48.800;9.540;2023-01-01T11:48:51;16.30;99.90
17421;DHT22;8828;48.800;9.540;2023-01-01T11:51:30;16.30;99.90
17421;DHT22;8828;48.800;9.540;2023-01-01T11:54:10;16.40;99.90
17421;DHT22;8828;48.800;9.540;2023-01-01T11:56:38;16.40;99.90
17421;DHT22;8828;48.800;9.540;2023-01-01T11:59:13;16.50;99.90
17421;DHT22;8828;48.800;9.540;2023-01-01T12:01:44;16.60;99.90
17421;DHT22;8828;48.800;9.540;2023-01-01T12:04:17;16.60;99.90
17421;DHT22;8828;48.800;9.540;2023-01-01T12:06:50;16.70;99.90
17421;DHT22;8828;48.800;9.540;2023-01-01T12:09:23;16.80;99.90
17421;DHT22;8828;48.800;9.540;2023-01-01T12:11:59;16.80;99.90
17421;DHT22;8828;48.800;9.540;2023-01-01T12:14:36;16.90;99.90
17421;DHT22;8828;48.800;9.540;2023-01-01T12:17:16;17.00;99.90
17421;DHT22;8828;48.800;9.540;2023-01-01T12:19:53;17.10;99.90
17421;DHT22;8828;48.800;9.540;2023-01-01T12:22:22;17.20;99.90
17421;DHT22;8828;48.800;9.540;2023-01-01T12:24:51;17.30;99.90
17421;DHT22;8828;48.800;9.540;2023-01-01T12:27:32;17.40;99.90
17421;DHT22;8828;48.800;9.540;2023-01-01T12:30:14;17.50;99.90
17421;DHT22;8828;48.800;9.540;2023-01-01T12:33:05;17.60;99.90
17421;DHT22;8828;48.800;9.540;2023-01-01T12:35:57;17.70;99.90
17421;DHT22;8828;48.800;9.540;2023-01-01T12:38:45;17.70;99.90
17421;DHT22;8828;48.800;9.540;2023-01-01T12:41:26;17.90;99.90
17421;DHT22;8828;48.800;9.540;2023-01-01T12:44:03;17.90;99.90
17421;DHT22;8828;48.800;9.540;2023-01-01T12:46:46;18.00;99.90
17421;DHT22;8828;48.800;9.540;2023-01-01T12:52:29;18.20;99.90
17421;DHT22;8828;48.800;9.540;2023-01-01T12:55:24;18.20;99.90
17421;DHT22;8828;48.800;9.540;2023-01-01T12:58:03;18.20;99.90
17421;DHT22;8828;48.800;9.540;2023-01-01T13:00:36;18.20;99.90
17421;DHT22;8828;48.800;9.540;2023-01-01T13:03:10;18.20;99.90
17421;DHT22;8828;48.800;9.540;2023-01-01T13:05:43;18.20;99.90
17421;DHT22;8828;48.800;9.540;2023-01-01T13:08:12;18.20;99.90
17421;DHT22;8828;48.800;9.540;2023-01-01T13:10:42;18.30;99.90
17421;DHT22;8828;48.800;9.540;2023-01-01T13:13:12;18.30;99.90
17421;DHT22;8828;48.800;9.540;2023-01-01T13:15:49;18.30;99.90
17421;DHT22;8828;48.800;9.540;2023-01-01T13:18:28;18.30;99.90
17421;DHT22;8828;48.800;9.540;2023-01-01T13:21:01;18.30;99.90
17421;DHT22;8828;48.800;9.540;2023-01-01T13:23:46;18.30;99.90
17421;DHT22;8828;48.800;9.540;2023-01-01T13:26:34;18.30;99.90
17421;DHT22;8828;48.800;9.540;2023-01-01T13:29:24;18.20;99.90
17421;DHT22;8828;48.800;9.540;2023-01-01T13:32:06;18.20;99.90
17421;DHT22;8828;48.800;9.540;2023-01-01T13:34:39;18.20;99.90
17421;DHT22;8828;48.800;9.540;2023-01-01T13:37:28;18.20;99.90
17421;DHT22;8828;48.800;9.540;2023-01-01T13:39:57;18.20;99.90
17421;DHT22;8828;48.800;9.540;2023-01-01T13:42:39;18.10;99.90
17421;DHT22;8828;48.800;9.540;2023-01-01T13:45:13;18.10;99.90
17421;DHT22;8828;48.800;9.540;2023-01-01T13:48:16;18.10;99.90
17421;DHT22;8828;48.800;9.540;2023-01-01T13:50:56;18.00;99.90
17421;DHT22;8828;48.800;9.540;2023-01-01T13:53:44;18.00;99.90
17421;DHT22;8828;48.800;9.540;2023-01-01T13:56:31;17.90;99.90
17421;DHT22;8828;48.800;9.540;2023-01-01T13:59:30;17.80;99.90
17421;DHT22;8828;48.800;9.540;2023-01-01T14:02:17;17.80;99.90
17421;DHT22;8828;48.800;9.540;2023-01-01T14:04:49;17.70;99.90
17421;DHT22;8828;48.800;9.540;2023-01-01T14:07:28;17.70;99.90
17421;DHT22;8828;48.800;9.540;2023-01-01T14:10:26;17.60;99.90
17421;DHT22;8828;48.800;9.540;2023-01-01T14:12:56;17.40;99.90
17421;DHT22;8828;48.800;9.540;2023-01-01T14:15:30;17.40;99.90
17421;DHT22;8828;48.800;9.540;2023-01-01T14:18:00;17.30;99.90
17421;DHT22;8828;48.800;9.540;2023-01-01T14:20:33;17.30;99.90
17421;DHT22;8828;48.800;9.540;2023-01-01T14:23:08;17.20;99.90
17421;DHT22;8828;48.800;9.540;2023-01-01T14:25:37;17.10;99.90
17421;DHT22;8828;48.800;9.540;2023-01-01T14:28:16;17.00;99.90
17421;DHT22;8828;48.800;9.540;2023-01-01T14:30:46;17.00;99.90
17421;DHT22;8828;48.800;9.540;2023-01-01T14:33:21;16.90;99.90
17421;DHT22;8828;48.800;9.540;2023-01-01T14:35:51;16.80;99.90
17421;DHT22;8828;48.800;9.540;2023-01-01T14:38:25;16.70;99.90
17421;DHT22;8828;48.800;9.540;2023-01-01T14:41:12;16.60;99.90
17421;DHT22;8828;48.800;9.540;2023-01-01T14:43:43;16.60;99.90
17421;DHT22;8828;48.800;9.540;2023-01-01T14:46:13;16.40;99.90
17421;DHT22;8828;48.800;9.540;2023-01-01T14:48:43;16.30;99.90
17421;DHT22;8828;48.800;9.540;2023-01-01T14:51:13;16.30;99.90
17421;DHT22;8828;48.800;9.540;2023-01-01T14:53:44;16.20;99.90
17421;DHT22;8828;48.800;9.540;2023-01-01T14:56:21;16.10;99.90
17421;DHT22;8828;48.800;9.540;2023-01-01T14:58:50;16.00;99.90
17421;DHT22;8828;48.800;9.540;2023-01-01T15:01:22;15.90;99.90
17421;DHT22;8828;48.800;9.540;2023-01-01T15:03:55;15.80;99.90
17421;DHT22;8828;48.800;9.540;2023-01-01T15:06:23;15.70;99.90
17421;DHT22;8828;48.800;9.540;2023-01-01T15:08:53;15.60;99.90
17421;DHT22;8828;48.800;9.540;2023-01-01T15:11:22;15.60;99.90
17421;DHT22;8828;48.800;9.540;2023-01-01T15:13:58;15.50;99.90
17421;DHT22;8828;48.800;9.540;2023-01-01T15:16:28;15.40;99.90
17421;DHT22;8828;48.800;9.540;2023-01-01T15:19:16;15.30;99.90
17421;DHT22;8828;48.800;9.540;2023-01-01T15:21:44;15.10;99.90
17421;DHT22;8828;48.800;9.540;2023-01-01T15:24:16;15.10;99.90
17421;DHT22;8828;48.800;9.540;2023-01-01T15:26:49;15.00;99.90
17421;DHT22;8828;48.800;9.540;2023-01-01T15:29:25;14.90;99.90
17421;DHT22;8828;48.800;9.540;2023-01-01T15:31:56;14.80;99.90
17421;DHT22;8828;48.800;9.540;2023-01-01T15:34:29;14.80;99.90
17421;DHT22;8828;48.800;9.540;2023-01-01T15:37:07;14.70;99.90
17421;DHT22;8828;48.800;9.540;2023-01-01T15:39:46;14.60;99.90
17421;DHT22;8828;48.800;9.540;2023-01-01T15:42:29;14.60;99.90
17421;DHT22;8828;48.800;9.540;2023-01-01T15:45:12;14.50;99.90
17421;DHT22;8828;48.800;9.540;2023-01-01T15:47:40;14.40;99.90
17421;DHT22;8828;48.800;9.540;2023-01-01T15:50:09;14.40;99.90
17421;DHT22;8828;48.800;9.540;2023-01-01T15:52:38;14.30;99.90
17421;DHT22;8828;48.800;9.540;2023-01-01T15:55:14;14.30;99.90
17421;DHT22;8828;48.800;9.540;2023-01-01T15:57:44;14.20;99.90
17421;DHT22;8828;48.800;9.540;2023-01-01T16:00:18;14.10;99.90
17421;DHT22;8828;48.800;9.540;2023-01-01T16:02:48;14.00;99.90
17421;DHT22;8828;48.800;9.540;2023-01-01T16:05:20;13.90;99.90
17421;DHT22;8828;48.800;9.540;2023-01-01T16:07:56;13.90;99.90
17421;DHT22;8828;48.800;9.540;2023-01-01T16:10:26;13.80;99.90
17421;DHT22;8828;48.800;9.540;2023-01-01T16:12:54;13.80;99.90
17421;DHT22;8828;48.800;9.540;2023-01-01T16:15:22;13.70;99.90
17421;DHT22;8828;48.800;9.540;2023-01-01T16:17:50;13.60;99.90
17421;DHT22;8828;48.800;9.540;2023-01-01T16:20:20;13.60;99.90
17421;DHT22;8828;48.800;9.540;2023-01-01T16:22:48;13.50;99.90